createdAt,value
2023-02-24T00:02:15.244Z,157399.75
2023-02-24T00:04:42.459Z,157406.34
2023-02-24T00:07:11.642Z,157414.38
2023-02-24T00:09:39.517Z,157405.03
2023-02-24T00:12:10.052Z,157415.69
2023-02-24T00:14:39.572Z,157410.34
2023-02-24T00:17:08.388Z,157427.63
2023-02-24T00:19:37.750Z,157436.91
2023-02-24T00:22:06.549Z,157440.88
2023-02-24T00:24:34.745Z,157444.88
2023-02-24T00:27:08.012Z,157458.16
2023-02-24T00:29:40.320Z,157458.16
2023-02-24T00:32:13.074Z,157478.09
2023-02-24T00:34:41.103Z,157501.97
2023-02-24T00:37:09.414Z,157499.31
2023-02-24T00:39:41.839Z,157501.97
2023-02-24T00:42:11.989Z,157504.66
2023-02-24T00:44:48.645Z,157488.69
2023-02-24T00:47:16.989Z,157501.97
2023-02-24T00:49:44.796Z,157505.97
2023-02-24T00:52:18.158Z,157488.69
2023-02-24T00:54:47.206Z,157520.56
2023-02-24T00:57:14.923Z,157511.25
2023-02-24T00:59:47.578Z,157508.59
2023-02-24T01:02:15.711Z,157512.59
2023-02-24T01:04:44.857Z,157513.94
2023-02-24T01:07:14.201Z,157519.25
2023-02-24T01:09:43.993Z,157524.53
2023-02-24T01:12:31.557Z,157523.22
2023-02-24T01:14:59.524Z,157521.88
2023-02-24T01:17:26.992Z,157533.84
2023-02-24T01:19:55.134Z,157552.41
2023-02-24T01:22:23.941Z,157551.09
2023-02-24T01:24:51.141Z,157548.47
2023-02-24T01:27:19.577Z,157553.78
2023-02-24T01:29:48.165Z,157560.38
2023-02-24T01:32:19.766Z,157557.75
2023-02-24T01:34:48.275Z,157559.06
2023-02-24T01:37:19.556Z,157560.38
2023-02-24T01:39:47.438Z,157553.78
2023-02-24T01:42:19.331Z,157557.75
2023-02-24T01:44:47.655Z,157577.66
2023-02-24T01:47:23.323Z,157568.38
2023-02-24T01:49:52.900Z,157578.97
2023-02-24T01:52:21.887Z,157583.00
2023-02-24T01:55:08.557Z,157597.59
2023-02-24T01:57:38.742Z,157601.56
2023-02-24T02:00:12.151Z,157596.28
2023-02-24T02:02:45.349Z,157584.31
2023-02-24T02:05:13.822Z,157580.31
2023-02-24T02:07:42.255Z,157592.28
2023-02-24T02:10:11.243Z,157594.91
2023-02-24T02:12:44.350Z,157585.63
2023-02-24T02:15:13.796Z,157583.00
2023-02-24T02:18:20.061Z,157584.31
2023-02-24T02:21:19.182Z,157581.66
2023-02-24T02:24:13.780Z,157568.38
2023-02-24T02:27:02.131Z,157572.34
2023-02-24T02:29:51.453Z,157561.75
2023-02-24T02:32:36.356Z,157555.09
2023-02-24T02:35:04.119Z,157575.03
2023-02-24T02:37:44.828Z,157568.38
2023-02-24T02:40:18.734Z,157569.72
2023-02-24T02:42:58.966Z,157569.72
2023-02-24T02:45:33.667Z,157578.97
2023-02-24T02:48:12.274Z,157571.03
2023-02-24T02:51:05.116Z,157581.66
2023-02-24T02:53:52.964Z,157578.97
2023-02-24T02:56:25.366Z,157584.31
2023-02-24T02:58:54.668Z,157594.91
2023-02-24T03:01:25.245Z,157592.28
2023-02-24T03:03:55.673Z,157578.97
2023-02-24T03:07:15.757Z,157585.63
2023-02-24T03:09:45.636Z,157586.94
2023-02-24T03:12:16.669Z,157584.31
2023-02-24T03:15:07.711Z,157585.63
2023-02-24T03:17:40.904Z,157580.31
2023-02-24T03:20:22.463Z,157573.66
2023-02-24T03:22:55.068Z,157581.66
2023-02-24T03:25:26.106Z,157572.34
2023-02-24T03:27:57.210Z,157575.03
2023-02-24T03:31:06.055Z,157571.03
2023-02-24T03:33:41.390Z,157561.75
2023-02-24T03:36:08.981Z,157565.69
2023-02-24T03:38:38.671Z,157560.38
2023-02-24T03:41:12.537Z,157571.03
2023-02-24T03:43:45.366Z,157569.72
2023-02-24T03:46:15.153Z,157557.75
2023-02-24T03:48:48.952Z,157569.72
2023-02-24T03:51:23.421Z,157575.03
2023-02-24T03:54:18.446Z,157575.03
2023-02-24T03:57:09.214Z,157584.31
2023-02-24T03:59:44.950Z,157580.31
2023-02-24T04:02:19.796Z,157590.94
2023-02-24T04:04:59.704Z,157600.22
2023-02-24T04:07:32.272Z,157608.19
2023-02-24T04:10:12.753Z,157608.19
2023-02-24T04:12:52.462Z,157616.16
2023-02-24T04:15:43.749Z,157625.50
2023-02-24T04:18:21.207Z,157636.09
2023-02-24T04:20:51.135Z,157644.06
2023-02-24T04:23:23.255Z,157646.75
2023-02-24T04:25:52.755Z,157660.03
2023-02-24T04:28:22.369Z,157669.31
2023-02-24T04:30:53.198Z,157664.00
2023-02-24T04:33:20.761Z,157674.63
2023-02-24T04:35:50.789Z,157678.59
2023-02-24T04:38:19.847Z,157695.91
2023-02-24T04:40:49.991Z,157702.53
2023-02-24T04:43:17.547Z,157697.22
2023-02-24T04:45:45.344Z,157703.88
2023-02-24T04:48:13.133Z,157711.81
2023-02-24T04:50:43.128Z,157719.78
2023-02-24T04:53:16.695Z,157734.41
2023-02-24T04:55:50.535Z,157729.13
2023-02-24T04:58:20.049Z,157743.72
2023-02-24T05:00:49.312Z,157746.38
2023-02-24T05:03:18.501Z,157742.38
2023-02-24T05:05:58.102Z,157743.72
2023-02-24T05:08:27.258Z,157762.31
2023-02-24T05:10:56.833Z,157761.00
2023-02-24T05:13:31.751Z,157761.00
2023-02-24T05:16:06.344Z,157763.63
2023-02-24T05:18:42.896Z,157763.63
2023-02-24T05:21:34.723Z,157772.97
2023-02-24T05:24:07.028Z,157768.94
2023-02-24T05:26:35.997Z,157770.28
2023-02-24T05:29:05.589Z,157782.25
2023-02-24T05:31:33.124Z,157783.56
2023-02-24T05:34:03.290Z,157795.53
2023-02-24T05:36:33.870Z,157802.19
2023-02-24T05:39:08.056Z,157790.22
2023-02-24T05:41:38.860Z,157810.16
2023-02-24T05:44:09.368Z,157820.81
2023-02-24T05:46:39.174Z,157832.75
2023-02-24T05:49:11.844Z,157828.78
2023-02-24T05:51:43.394Z,157839.38
2023-02-24T05:54:13.375Z,157840.72
2023-02-24T05:56:45.101Z,157842.06
2023-02-24T05:59:12.966Z,157834.09
2023-02-24T06:01:41.690Z,157848.72
2023-02-24T06:04:09.683Z,157851.38
2023-02-24T06:06:39.347Z,157848.72
2023-02-24T06:09:16.622Z,157850.03
2023-02-24T06:11:45.284Z,157865.97
2023-02-24T06:14:12.909Z,157863.34
2023-02-24T06:16:41.863Z,157867.31
2023-02-24T06:19:11.012Z,157871.31
2023-02-24T06:21:41.508Z,157883.28
2023-02-24T06:24:14.782Z,157887.25
2023-02-24T06:26:45.666Z,157891.25
2023-02-24T06:29:17.407Z,157893.91
2023-02-24T06:31:45.408Z,157892.56
2023-02-24T06:34:18.369Z,157905.88
2023-02-24T06:36:47.131Z,157892.56
2023-02-24T06:39:14.726Z,157899.22
2023-02-24T06:41:42.691Z,157903.19
2023-02-24T06:44:10.077Z,157903.19
2023-02-24T06:46:37.513Z,157911.16
2023-02-24T06:49:04.747Z,157913.84
2023-02-24T06:51:32.155Z,157907.19
2023-02-24T06:53:59.758Z,157912.53
2023-02-24T06:56:27.874Z,157923.13
2023-02-24T06:58:56.444Z,157915.16
2023-02-24T07:01:26.174Z,157921.81
2023-02-24T07:04:17.774Z,157923.13
2023-02-24T07:06:49.460Z,157937.75
2023-02-24T07:09:18.872Z,157947.09
2023-02-24T07:11:48.584Z,157944.41
2023-02-24T07:14:15.796Z,157944.41
2023-02-24T07:16:45.648Z,157944.41
2023-02-24T07:19:15.626Z,157952.38
2023-02-24T07:21:50.104Z,157972.31
2023-02-24T07:24:24.975Z,157975.00
2023-02-24T07:26:57.251Z,157989.63
2023-02-24T07:29:25.850Z,157981.66
2023-02-24T07:31:56.815Z,157990.97
2023-02-24T07:34:25.359Z,158000.25
2023-02-24T07:36:53.126Z,157988.28
2023-02-24T07:39:23.001Z,158002.94
2023-02-24T07:41:51.959Z,158013.56
2023-02-24T07:44:20.410Z,158017.56
2023-02-24T07:46:49.291Z,158014.88
2023-02-24T07:49:19.937Z,158030.88
2023-02-24T07:51:52.965Z,158016.19
2023-02-24T07:54:22.054Z,158018.88
2023-02-24T07:56:56.952Z,158025.53
2023-02-24T07:59:47.161Z,158042.81
2023-02-24T08:02:15.426Z,158033.50
2023-02-24T08:04:50.424Z,158038.84
2023-02-24T08:07:25.032Z,158049.44
2023-02-24T08:10:11.771Z,158057.41
2023-02-24T08:12:42.935Z,158062.75
2023-02-24T08:15:17.801Z,158056.09
2023-02-24T08:17:47.659Z,158062.75
2023-02-24T08:20:15.648Z,158069.41
2023-02-24T08:22:46.643Z,158074.75
2023-02-24T08:25:19.202Z,158088.06
2023-02-24T08:28:06.983Z,158078.69
2023-02-24T08:30:40.647Z,158081.38
2023-02-24T08:33:10.855Z,158082.72
2023-02-24T08:35:44.985Z,158106.63
2023-02-24T08:38:16.121Z,158110.66
2023-02-24T08:40:54.582Z,158113.28
2023-02-24T08:43:31.029Z,158110.66
2023-02-24T08:46:13.611Z,158126.59
2023-02-24T08:48:43.291Z,158131.94
2023-02-24T08:51:18.067Z,158142.59
2023-02-24T08:53:47.227Z,158149.25
2023-02-24T08:56:24.229Z,158142.59
2023-02-24T08:58:57.067Z,158149.25
2023-02-24T09:01:34.959Z,158150.63
2023-02-24T09:04:08.651Z,158150.63
2023-02-24T09:06:45.269Z,158158.59
2023-02-24T09:09:32.372Z,158167.88
2023-02-24T09:12:00.398Z,158147.94
2023-02-24T09:14:36.624Z,158159.91
2023-02-24T09:17:06.862Z,158161.25
2023-02-24T09:19:46.603Z,158170.53
2023-02-24T09:22:21.268Z,158179.88
2023-02-24T09:24:51.297Z,158187.84
2023-02-24T09:27:18.354Z,158187.84
2023-02-24T09:29:51.886Z,158195.84
2023-02-24T09:32:19.081Z,158198.47
2023-02-24T09:34:47.273Z,158187.84
2023-02-24T09:37:33.739Z,158209.16
2023-02-24T09:40:19.914Z,158202.47
2023-02-24T09:42:47.071Z,158203.81
2023-02-24T09:45:33.389Z,158209.16
2023-02-24T09:48:10.975Z,158205.13
2023-02-24T09:51:04.116Z,158207.81
2023-02-24T09:53:49.604Z,158211.78
2023-02-24T09:56:22.883Z,158218.44
2023-02-24T09:59:14.758Z,158201.16
2023-02-24T10:01:50.561Z,158198.47
2023-02-24T10:04:29.816Z,158191.81
2023-02-24T10:07:09.252Z,158153.25
2023-02-24T10:09:41.965Z,158127.91
2023-02-24T10:12:32.038Z,158097.34
2023-02-24T10:15:22.848Z,158089.38
2023-02-24T10:17:55.579Z,158072.06
2023-02-24T10:20:39.190Z,158041.47
2023-02-24T10:23:15.351Z,158052.16
2023-02-24T10:25:54.341Z,158054.78
2023-02-24T10:28:35.731Z,158053.47
2023-02-24T10:31:27.401Z,158025.53
2023-02-24T10:34:06.308Z,158033.50
2023-02-24T10:36:36.853Z,158049.44
2023-02-24T10:39:20.788Z,158061.44
2023-02-24T10:41:57.516Z,158076.06
2023-02-24T10:44:36.145Z,158105.31
2023-02-24T10:47:12.751Z,158115.97
2023-02-24T10:50:01.232Z,158115.97
2023-02-24T10:52:55.274Z,158121.25
2023-02-24T10:55:45.850Z,158127.91
2023-02-24T10:58:56.974Z,158138.59
2023-02-24T11:01:46.343Z,158147.94
2023-02-24T11:04:39.301Z,158149.25
2023-02-24T11:07:24.697Z,158166.56
2023-02-24T11:10:12.301Z,158161.25
2023-02-24T11:13:10.107Z,158169.22
2023-02-24T11:16:02.265Z,158179.88
2023-02-24T11:18:30.941Z,158185.22
2023-02-24T11:21:00.715Z,158195.84
2023-02-24T11:23:50.006Z,158206.50
2023-02-24T11:26:21.236Z,158206.50
2023-02-24T11:29:18.010Z,158207.81
2023-02-24T11:32:00.064Z,158203.81
2023-02-24T11:34:52.261Z,158217.13
2023-02-24T11:37:43.392Z,158241.03
2023-02-24T11:40:17.509Z,158241.03
2023-02-24T11:42:56.234Z,158263.72
2023-02-24T11:45:51.011Z,158278.34
2023-02-24T11:48:19.683Z,158283.69
2023-02-24T11:50:51.395Z,158294.31
2023-02-24T11:53:36.285Z,158315.59
2023-02-24T11:56:09.078Z,158342.22
2023-02-24T11:59:13.591Z,158364.84
2023-02-24T12:01:46.035Z,158352.84
2023-02-24T12:04:37.565Z,158367.47
2023-02-24T12:07:20.898Z,158351.50
2023-02-24T12:09:53.752Z,158336.88
2023-02-24T12:12:29.206Z,158342.22
2023-02-24T12:14:58.258Z,158350.19
2023-02-24T12:17:58.145Z,158323.56
2023-02-24T12:20:35.121Z,158290.28
2023-02-24T12:23:15.979Z,158295.63
2023-02-24T12:26:09.081Z,158273.00
2023-02-24T12:29:04.351Z,158249.06
2023-02-24T12:31:45.963Z,158222.44
2023-02-24T12:34:35.288Z,158225.09
2023-02-24T12:37:33.194Z,158238.41
2023-02-24T12:40:26.187Z,158291.66
2023-02-24T12:42:59.617Z,158322.25
2023-02-24T12:45:54.740Z,158319.59
2023-02-24T12:48:40.705Z,158327.59
2023-02-24T12:51:17.381Z,158339.53
2023-02-24T12:53:52.350Z,158360.88
2023-02-24T12:56:52.117Z,158367.47
2023-02-24T12:59:21.637Z,158348.88
2023-02-24T13:01:51.946Z,158354.22
2023-02-24T13:04:39.669Z,158350.19
2023-02-24T13:07:22.798Z,158322.25
2023-02-24T13:10:24.082Z,158331.53
2023-02-24T13:12:53.139Z,158315.59
2023-02-24T13:15:25.565Z,158308.94
2023-02-24T13:17:57.672Z,158314.25
2023-02-24T13:20:31.314Z,158303.59
2023-02-24T13:22:59.935Z,158302.28
2023-02-24T13:25:34.109Z,158285.00
2023-02-24T13:28:04.240Z,158285.00
2023-02-24T13:30:34.020Z,158270.38
2023-02-24T13:33:27.405Z,158273.00
2023-02-24T13:36:16.541Z,158266.34
2023-02-24T13:38:46.970Z,158254.34
2023-02-24T13:41:21.680Z,158254.34
2023-02-24T13:44:02.612Z,158233.06
2023-02-24T13:46:58.518Z,158235.75
2023-02-24T13:49:28.914Z,158246.38
2023-02-24T13:52:00.572Z,158257.06
2023-02-24T13:54:31.078Z,158269.00
2023-02-24T13:57:49.496Z,158275.66
2023-02-24T14:00:22.535Z,158315.59
2023-02-24T14:02:52.992Z,158334.25
2023-02-24T14:05:27.513Z,158344.84
2023-02-24T14:07:55.397Z,158371.50
2023-02-24T14:10:25.368Z,158384.81
2023-02-24T14:13:18.406Z,158408.75
2023-02-24T14:15:47.324Z,158404.78
2023-02-24T14:18:26.329Z,158406.09
2023-02-24T14:20:55.761Z,158411.44
2023-02-24T14:23:31.814Z,158415.41
2023-02-24T14:26:05.611Z,158400.78
2023-02-24T14:28:34.897Z,158410.13
2023-02-24T14:31:09.193Z,158403.47
2023-02-24T14:33:38.048Z,158367.47
2023-02-24T14:36:07.945Z,158380.78
2023-02-24T14:38:36.840Z,158376.81
2023-02-24T14:41:17.466Z,158375.50
2023-02-24T14:43:44.592Z,158374.13
2023-02-24T14:46:12.057Z,158344.84
2023-02-24T14:48:39.315Z,158358.19
2023-02-24T14:51:18.946Z,158343.53
2023-02-24T14:53:50.208Z,158335.56
2023-02-24T14:56:17.806Z,158322.25
2023-02-24T14:58:52.406Z,158334.25
2023-02-24T15:01:26.189Z,158322.25
2023-02-24T15:04:00.598Z,158312.94
2023-02-24T15:06:30.981Z,158315.59
2023-02-24T15:09:01.647Z,158302.28
2023-02-24T15:11:30.866Z,158306.28
2023-02-24T15:14:06.275Z,158299.63
2023-02-24T15:16:38.004Z,158273.00
2023-02-24T15:19:05.477Z,158280.97
2023-02-24T15:21:40.040Z,158273.00
2023-02-24T15:24:31.103Z,158273.00
2023-02-24T15:27:18.933Z,158259.69
2023-02-24T15:30:05.253Z,158266.34
2023-02-24T15:32:37.713Z,158246.38
2023-02-24T15:35:06.139Z,158263.72
2023-02-24T15:37:42.122Z,158262.38
2023-02-24T15:40:20.934Z,158245.06
2023-02-24T15:42:52.304Z,158231.75
2023-02-24T15:45:30.104Z,158233.06
2023-02-24T15:48:00.354Z,158227.78
2023-02-24T15:50:29.352Z,158201.16
2023-02-24T15:52:58.822Z,158207.81
2023-02-24T15:55:27.928Z,158206.50
2023-02-24T15:58:00.897Z,158163.88
2023-02-24T16:00:28.801Z,158182.53
2023-02-24T16:02:56.206Z,158157.28
2023-02-24T16:05:23.628Z,158125.28
2023-02-24T16:07:51.095Z,158070.72
2023-02-24T16:10:22.449Z,158025.53
2023-02-24T16:12:52.421Z,157973.66
2023-02-24T16:15:31.744Z,157932.47
2023-02-24T16:17:59.585Z,157900.53
2023-02-24T16:20:31.735Z,157846.03
2023-02-24T16:23:01.431Z,157802.19
2023-02-24T16:25:29.902Z,157775.59
2023-02-24T16:27:57.464Z,157754.34
2023-02-24T16:30:27.116Z,157743.72
2023-02-24T16:32:54.634Z,157733.09
2023-02-24T16:35:21.947Z,157710.50
2023-02-24T16:37:49.383Z,157691.88
2023-02-24T16:40:20.370Z,157682.59
2023-02-24T16:42:48.627Z,157650.69
2023-02-24T16:45:15.864Z,157653.38
2023-02-24T16:47:44.286Z,157632.13
2023-02-24T16:50:20.166Z,157633.44
2023-02-24T16:52:47.503Z,157613.53
2023-02-24T16:55:15.238Z,157606.88
2023-02-24T16:57:42.986Z,157592.28
2023-02-24T17:00:12.966Z,157581.66
2023-02-24T17:02:42.040Z,157576.34
2023-02-24T17:05:28.937Z,157571.03
2023-02-24T17:07:57.419Z,157555.09
2023-02-24T17:10:25.822Z,157537.81
2023-02-24T17:12:53.271Z,157507.28
2023-02-24T17:15:23.034Z,157499.31
2023-02-24T17:17:50.665Z,157479.41
2023-02-24T17:20:19.848Z,157470.13
2023-02-24T17:22:47.636Z,157448.88
2023-02-24T17:25:17.316Z,157424.97
2023-02-24T17:27:45.096Z,157415.69
2023-02-24T17:30:14.690Z,157402.41
2023-02-24T17:32:42.082Z,157406.34
2023-02-24T17:35:10.332Z,157395.75
2023-02-24T17:37:38.396Z,157393.13
2023-02-24T17:40:06.878Z,157399.75
2023-02-24T17:42:36.145Z,157399.75
2023-02-24T17:45:04.399Z,157385.13
2023-02-24T17:47:32.721Z,157379.84
2023-02-24T17:50:00.570Z,157371.88
2023-02-24T17:52:29.769Z,157371.88
2023-02-24T17:54:57.292Z,157375.84
2023-02-24T17:57:24.865Z,157370.53
2023-02-24T17:59:52.051Z,157375.84
2023-02-24T18:02:19.692Z,157379.84
2023-02-24T18:04:49.443Z,157382.47
2023-02-24T18:07:17.117Z,157377.16
2023-02-24T18:09:45.757Z,157357.25
2023-02-24T18:12:13.266Z,157373.22
2023-02-24T18:14:40.812Z,157359.94
2023-02-24T18:17:08.043Z,157350.66
2023-02-24T18:19:35.947Z,157341.31
2023-02-24T18:22:03.504Z,157333.38
2023-02-24T18:24:30.713Z,157312.13
2023-02-24T18:26:58.125Z,157330.75
2023-02-24T18:29:25.288Z,157328.06
2023-02-24T18:31:52.943Z,157325.41
2023-02-24T18:34:20.442Z,157320.09
2023-02-24T18:36:47.976Z,157314.78
2023-02-24T18:39:15.297Z,157304.19
2023-02-24T18:41:42.861Z,157320.09
2023-02-24T18:44:10.439Z,157321.41
2023-02-24T18:46:37.771Z,157301.56
2023-02-24T18:49:06.820Z,157289.59
2023-02-24T18:51:34.550Z,157290.91
2023-02-24T18:54:02.756Z,157271.00
2023-02-24T18:56:31.502Z,157267.03
2023-02-24T18:58:59.777Z,157272.31
2023-02-24T19:01:33.102Z,157186.09
2023-02-24T19:04:01.490Z,157194.03
2023-02-24T19:06:30.938Z,157191.41
2023-02-24T19:09:09.823Z,157152.91
2023-02-24T19:11:39.105Z,157142.34
2023-02-24T19:14:06.836Z,157138.31
2023-02-24T19:16:35.069Z,157139.66
2023-02-24T19:19:02.399Z,157125.06
2023-02-24T19:21:31.402Z,157118.44
2023-02-24T19:24:08.378Z,157111.78
2023-02-24T19:26:36.018Z,157122.44
2023-02-24T19:29:04.112Z,157098.56
2023-02-24T19:31:33.604Z,157097.22
2023-02-24T19:34:04.040Z,157095.88
2023-02-24T19:36:33.950Z,157093.25
2023-02-24T19:39:01.619Z,157087.94
2023-02-24T19:41:29.726Z,157056.09
2023-02-24T19:43:57.332Z,157037.56
2023-02-24T19:46:25.263Z,157015.03
2023-02-24T19:48:52.638Z,157005.72
2023-02-24T19:51:22.486Z,157000.44
2023-02-24T19:53:54.003Z,156999.09
2023-02-24T19:56:30.344Z,156992.44
2023-02-24T19:58:59.318Z,156992.44
2023-02-24T20:01:28.630Z,156991.13
2023-02-24T20:04:00.513Z,156985.81
2023-02-24T20:06:43.054Z,156984.50
2023-02-24T20:09:15.627Z,156976.56
2023-02-24T20:11:45.307Z,156987.19
2023-02-24T20:14:13.428Z,156995.13
2023-02-24T20:16:42.475Z,156992.44
2023-02-24T20:19:11.828Z,156975.22
2023-02-24T20:21:39.831Z,157015.03
2023-02-24T20:24:11.145Z,157026.94
2023-02-24T20:26:42.175Z,157030.94
2023-02-24T20:29:11.429Z,157032.25
2023-02-24T20:31:39.943Z,157034.88
2023-02-24T20:34:09.303Z,157045.50
2023-02-24T20:36:37.325Z,157054.78
2023-02-24T20:39:06.765Z,157074.69
2023-02-24T20:41:34.414Z,157080.00
2023-02-24T20:44:01.645Z,157090.56
2023-02-24T20:46:31.461Z,157103.84
2023-02-24T20:49:06.783Z,157101.22
2023-02-24T20:51:37.106Z,157125.06
2023-02-24T20:54:05.898Z,157126.44
2023-02-24T20:56:36.624Z,157148.97
2023-02-24T20:59:31.873Z,157166.19
2023-02-24T21:02:00.376Z,157159.56
2023-02-24T21:04:27.518Z,157164.88
2023-02-24T21:06:54.986Z,157190.09
2023-02-24T21:09:22.390Z,157199.38
2023-02-24T21:11:50.111Z,157194.03
2023-02-24T21:14:17.655Z,157203.38
2023-02-24T21:16:48.174Z,157196.72
2023-02-24T21:19:15.917Z,157203.38
2023-02-24T21:21:43.348Z,157211.31
2023-02-24T21:24:10.866Z,157220.59
2023-02-24T21:26:38.312Z,157228.53
2023-02-24T21:29:05.423Z,157244.44
2023-02-24T21:31:32.943Z,157257.72
2023-02-24T21:34:00.055Z,157271.00
2023-02-24T21:36:28.142Z,157261.72
2023-02-24T21:38:55.832Z,157271.00
2023-02-24T21:41:23.913Z,157265.69
2023-02-24T21:43:55.662Z,157273.69
2023-02-24T21:46:28.473Z,157264.34
2023-02-24T21:48:57.620Z,157268.38
2023-02-24T21:51:26.358Z,157292.22
2023-02-24T21:53:55.169Z,157290.91
2023-02-24T21:56:25.288Z,157294.91
2023-02-24T21:58:56.761Z,157298.88
2023-02-24T22:01:27.183Z,157308.13
2023-02-24T22:03:56.106Z,157312.13
2023-02-24T22:06:24.236Z,157313.47
2023-02-24T22:08:51.869Z,157308.13
2023-02-24T22:11:19.603Z,157310.81
2023-02-24T22:13:47.274Z,157328.06
2023-02-24T22:16:18.312Z,157336.00
2023-02-24T22:18:46.334Z,157330.75
2023-02-24T22:21:19.558Z,157337.38
2023-02-24T22:23:47.743Z,157341.31
2023-02-24T22:26:16.853Z,157336.00
2023-02-24T22:28:45.555Z,157330.75
2023-02-24T22:31:14.775Z,157337.38
2023-02-24T22:33:43.262Z,157329.41
2023-02-24T22:36:14.838Z,157347.97
2023-02-24T22:38:43.265Z,157351.97
2023-02-24T22:41:16.514Z,157337.38
2023-02-24T22:43:43.788Z,157347.97
2023-02-24T22:46:13.822Z,157353.28
2023-02-24T22:48:41.125Z,157330.75
2023-02-24T22:51:11.047Z,157341.31
2023-02-24T22:53:41.256Z,157349.28
2023-02-24T22:56:11.130Z,157350.66
2023-02-24T22:58:39.123Z,157361.25
2023-02-24T23:01:18.482Z,157365.25
2023-02-24T23:03:48.621Z,157354.59
2023-02-24T23:06:22.212Z,157350.66
2023-02-24T23:08:50.883Z,157355.94
2023-02-24T23:11:27.867Z,157362.56
2023-02-24T23:13:56.248Z,157378.53
2023-02-24T23:16:27.484Z,157382.47
2023-02-24T23:18:56.276Z,157382.47
2023-02-24T23:21:25.851Z,157382.47
2023-02-24T23:23:57.855Z,157378.53
2023-02-24T23:26:49.709Z,157382.47
2023-02-24T23:29:18.229Z,157374.53
2023-02-24T23:31:46.321Z,157378.53
2023-02-24T23:34:14.639Z,157366.56
2023-02-24T23:36:44.224Z,157370.53
2023-02-24T23:39:13.645Z,157363.88
2023-02-24T23:41:41.580Z,157373.22
2023-02-24T23:44:08.908Z,157359.94
2023-02-24T23:46:36.954Z,157362.56
2023-02-24T23:49:05.296Z,157358.63
2023-02-24T23:51:46.945Z,157355.94
2023-02-24T23:54:15.713Z,157355.94
2023-02-24T23:56:43.180Z,157365.25
2023-02-24T23:59:10.416Z,157369.19
